Time;durP1;ratioP1;P1;durP2;ratioP2;P2;SDS_P1;SDS_P2;PMS_P1;PMS_P2;Temp;Humidity;BMP_temperature;BMP_pressure;BME280_temperature;BME280_humidity;BME280_pressure;Samples;Min_cycle;Max_cycle;Signal;HPM_P1;HPM_P2
2022/02/15 00:01:52;;;;;;;1.77;1.10;;;;;;;4.47;100.00;95503.69;5015094;28;20040;-78
2022/02/15 00:04:18;;;;;;;2.37;1.20;;;;;;;4.46;100.00;95509.03;5029974;28;20032;-79
2022/02/15 00:06:43;;;;;;;2.33;1.20;;;;;;;4.44;100.00;95505.75;5036986;28;20037;-78
2022/02/15 00:09:09;;;;;;;3.60;1.37;;;;;;;4.49;100.00;95514.81;5023297;28;20056;-78
2022/02/15 00:11:35;;;;;;;4.30;1.40;;;;;;;4.43;100.00;95515.34;5022269;28;20036;-78
2022/02/15 00:14:01;;;;;;;3.17;1.20;;;;;;;4.50;100.00;95507.81;5034045;28;20105;-78
2022/02/15 00:16:27;;;;;;;2.87;1.17;;;;;;;4.54;100.00;95510.94;5026850;28;20521;-77
2022/02/15 00:18:53;;;;;;;1.77;1.27;;;;;;;4.49;100.00;95514.81;5024478;28;20075;-77
2022/02/15 00:21:18;;;;;;;3.80;1.50;;;;;;;4.47;100.00;95508.91;5034778;28;20100;-78
2022/02/15 00:23:44;;;;;;;4.10;2.13;;;;;;;4.43;100.00;95510.16;5028489;28;20059;-78
2022/02/15 00:26:10;;;;;;;2.80;1.80;;;;;;;4.44;100.00;95513.56;5052498;28;20060;-78
2022/02/15 00:28:36;;;;;;;3.17;1.30;;;;;;;4.39;100.00;95508.78;5046276;28;20470;-78
2022/02/15 00:31:02;;;;;;;3.53;1.50;;;;;;;4.39;100.00;95518.34;5021002;28;20042;-78
2022/02/15 00:33:27;;;;;;;3.97;1.47;;;;;;;4.36;100.00;95522.06;5019954;28;20040;-78
2022/02/15 00:35:55;;;;;;;2.10;1.30;;;;;;;4.36;100.00;95524.69;5036558;28;20033;-78
2022/02/15 00:38:21;;;;;;;2.70;1.43;;;;;;;4.31;100.00;95519.06;5040566;28;20021;-79
2022/02/15 00:40:47;;;;;;;2.73;1.57;;;;;;;4.35;100.00;95523.00;5026363;28;20540;-77
2022/02/15 00:43:12;;;;;;;3.93;1.60;;;;;;;4.32;100.00;95519.88;5037336;28;20406;-78
2022/02/15 00:45:38;;;;;;;3.13;1.33;;;;;;;4.32;100.00;95522.47;5015963;28;20084;-79
2022/02/15 00:48:04;;;;;;;2.73;1.70;;;;;;;4.32;100.00;95518.09;5014013;28;20244;-78
2022/02/15 00:50:31;;;;;;;4.33;1.70;;;;;;;4.38;100.00;95527.94;5018082;28;20099;-78
2022/02/15 00:52:57;;;;;;;4.90;1.40;;;;;;;4.39;100.00;95524.41;5042946;28;20079;-78
2022/02/15 00:55:23;;;;;;;3.20;1.63;;;;;;;4.39;100.00;95526.16;5020011;28;20124;-78
2022/02/15 00:57:48;;;;;;;3.43;1.60;;;;;;;4.40;100.00;95518.22;5025228;28;20117;-78
2022/02/15 01:00:14;;;;;;;3.13;1.60;;;;;;;4.41;100.00;95512.06;5032129;28;20029;-78
2022/02/15 01:02:40;;;;;;;4.03;1.57;;;;;;;4.38;100.00;95516.72;5018462;28;20311;-77
2022/02/15 01:05:07;;;;;;;2.67;1.40;;;;;;;4.34;100.00;95513.56;5026183;28;20066;-78
2022/02/15 01:07:33;;;;;;;3.57;1.73;;;;;;;4.38;100.00;95521.94;5015288;28;20045;-78
2022/02/15 01:09:59;;;;;;;3.70;1.80;;;;;;;4.36;100.00;95523.84;5027858;28;20038;-78
2022/02/15 01:12:24;;;;;;;3.03;1.70;;;;;;;4.35;100.00;95530.00;5023890;28;20040;-78
2022/02/15 01:14:51;;;;;;;3.57;2.03;;;;;;;4.35;100.00;95527.41;5044636;28;20037;-78
2022/02/15 01:17:17;;;;;;;4.87;1.90;;;;;;;4.38;100.00;95533.16;5038480;28;20025;-78
2022/02/15 01:19:43;;;;;;;2.73;1.53;;;;;;;4.36;100.00;95529.88;5039767;28;20040;-80
2022/02/15 01:22:10;;;;;;;3.97;1.90;;;;;;;4.34;100.00;95525.78;5014346;28;20752;-78
2022/02/15 01:24:36;;;;;;;5.37;2.17;;;;;;;4.32;100.00;95527.69;5016298;28;20056;-77
2022/02/15 01:27:03;;;;;;;3.73;1.87;;;;;;;4.32;100.00;95528.50;5024420;28;20487;-78
2022/02/15 01:29:29;;;;;;;3.27;1.83;;;;;;;4.24;100.00;95537.00;5014913;28;20030;-78
2022/02/15 01:31:56;;;;;;;3.47;1.80;;;;;;;4.25;100.00;95536.03;5029965;28;20137;-80
2022/02/15 01:34:21;;;;;;;4.37;2.20;;;;;;;4.29;100.00;95536.56;5034162;28;20147;-77
2022/02/15 01:36:47;;;;;;;2.63;1.53;;;;;;;4.32;100.00;95528.50;5031970;28;20043;-78
2022/02/15 01:39:19;;;;;;;3.13;1.70;;;;;;;4.30;100.00;95530.44;5022997;28;20120;-77
2022/02/15 01:41:45;;;;;;;3.77;2.00;;;;;;;4.29;100.00;95528.75;5021647;28;20029;-78
2022/02/15 01:44:11;;;;;;;4.10;1.80;;;;;;;4.32;100.00;95519.88;5051812;28;20122;-79
2022/02/15 01:46:39;;;;;;;3.70;2.03;;;;;;;4.28;100.00;95521.94;5024411;28;20037;-77
2022/02/15 01:49:06;;;;;;;4.03;1.97;;;;;;;4.29;100.00;95522.75;5022577;28;20026;-78
2022/02/15 01:51:32;;;;;;;5.23;2.70;;;;;;;4.30;100.00;95516.59;5035432;28;20401;-78
2022/02/15 01:53:57;;;;;;;5.17;2.30;;;;;;;4.28;100.00;95519.31;5028168;28;20117;-78
2022/02/15 01:56:24;;;;;;;3.67;2.23;;;;;;;4.30;100.00;95511.41;5018568;28;20033;-79
2022/02/15 01:58:51;;;;;;;4.17;2.40;;;;;;;4.20;100.00;95520.03;5023758;28;20052;-78
2022/02/15 02:01:19;;;;;;;6.73;2.90;;;;;;;4.21;100.00;95528.66;5007483;28;20194;-77
2022/02/15 02:03:56;;;;;;;6.37;3.33;;;;;;;4.19;100.00;95528.81;5020282;28;20056;-77
2022/02/15 02:06:25;;;;;;;5.70;3.27;;;;;;;4.17;100.00;95535.91;5025707;28;20037;-76
2022/02/15 02:08:51;;;;;;;4.47;2.60;;;;;;;4.13;100.00;95526.75;5032360;28;20109;-76
2022/02/15 02:11:16;;;;;;;4.87;2.60;;;;;;;4.06;100.00;95517.84;5028092;28;20041;-76
2022/02/15 02:13:46;;;;;;;4.87;2.80;;;;;;;4.06;100.00;95517.00;5036246;28;20068;-76
2022/02/15 02:16:13;;;;;;;3.83;2.20;;;;;;;4.07;100.00;95519.47;5025069;28;20439;-78
2022/02/15 02:18:56;;;;;;;4.38;2.92;;;;;;;3.98;100.00;95525.50;5047135;28;20044;-76
2022/02/15 02:21:36;;;;;;;6.33;2.20;;;;;;;3.99;100.00;95527.13;5023449;28;20029;-77
2022/02/15 02:24:02;;;;;;;5.73;2.40;;;;;;;3.98;100.00;95523.69;5039834;28;20191;-79
2022/02/15 02:26:29;;;;;;;6.07;2.97;;;;;;;3.95;100.00;95526.56;5037849;28;20033;-77
2022/02/15 02:28:55;;;;;;;4.90;2.70;;;;;;;3.93;100.00;95525.09;5048264;28;20090;-77
2022/02/15 02:31:23;;;;;;;5.37;2.63;;;;;;;3.90;100.00;95531.38;5022749;28;20059;-77
2022/02/15 02:34:02;;;;;;;5.13;2.43;;;;;;;3.92;100.00;95531.22;5010090;28;20029;-77
2022/02/15 02:36:29;;;;;;;6.97;2.60;;;;;;;3.92;100.00;95537.28;5023788;28;20473;-77
2022/02/15 02:38:55;;;;;;;5.07;2.70;;;;;;;3.92;100.00;95531.22;5011552;28;20030;-77
2022/02/15 02:41:21;;;;;;;5.67;2.63;;;;;;;3.91;100.00;95530.41;5050801;28;20033;-78
2022/02/15 02:43:47;;;;;;;4.33;2.40;;;;;;;3.85;100.00;95533.53;5020688;28;20032;-77
2022/02/15 02:46:14;;;;;;;6.00;2.70;;;;;;;3.83;100.00;95538.09;5031052;28;20033;-77
2022/02/15 02:48:43;;;;;;;4.30;2.80;;;;;;;3.83;100.00;95543.28;5017092;28;20107;-76
2022/02/15 02:51:09;;;;;;;6.43;2.53;;;;;;;3.75;100.00;95546.53;5037729;28;20030;-77
2022/02/15 02:53:35;;;;;;;5.43;2.70;;;;;;;3.78;100.00;95546.28;5026141;28;20514;-77
2022/02/15 02:56:00;;;;;;;5.17;2.53;;;;;;;3.77;100.00;95552.44;5033562;28;20110;-77
2022/02/15 02:58:26;;;;;;;5.33;2.73;;;;;;;3.74;100.00;95552.69;5018139;28;20444;-77
2022/02/15 03:00:52;;;;;;;6.13;3.10;;;;;;;3.74;100.00;95557.91;5019959;28;20032;-76
2022/02/15 03:03:25;;;;;;;4.73;2.30;;;;;;;3.71;100.00;95559.94;5036427;28;20039;-78
2022/02/15 03:05:52;;;;;;;5.03;2.70;;;;;;;3.71;100.00;95565.97;5047193;28;20554;-77
2022/02/15 03:08:19;;;;;;;4.73;2.33;;;;;;;3.72;100.00;95565.03;5027452;28;20033;-76
2022/02/15 03:10:47;;;;;;;3.97;2.10;;;;;;;3.74;100.00;95570.09;5039446;28;20025;-76
2022/02/15 03:13:25;;;;;;;6.40;2.50;;;;;;;3.75;100.00;95569.94;5022714;28;20029;-77
2022/02/15 03:15:51;;;;;;;5.03;2.57;;;;;;;3.78;100.00;95574.88;5034498;28;20037;-76
2022/02/15 03:18:17;;;;;;;5.67;2.60;;;;;;;3.69;100.00;95575.69;5037292;28;20025;-78
2022/02/15 03:20:43;;;;;;;4.30;2.37;;;;;;;3.68;100.00;95578.41;5036488;28;20132;-77
2022/02/15 03:23:10;;;;;;;4.60;2.30;;;;;;;3.68;100.00;95581.84;5037816;28;20033;-77
2022/02/15 03:25:38;;;;;;;4.20;2.30;;;;;;;3.66;100.00;95588.16;5017605;28;20052;-76
2022/02/15 03:28:05;;;;;;;4.33;2.37;;;;;;;3.67;100.00;95579.38;5043295;28;20064;-76
2022/02/15 03:30:31;;;;;;;4.23;2.43;;;;;;;3.67;100.00;95576.78;5029859;28;20064;-78
2022/02/15 03:32:58;;;;;;;4.37;2.53;;;;;;;3.64;100.00;95575.25;5028067;28;20103;-78
2022/02/15 03:35:24;;;;;;;5.80;3.00;;;;;;;3.63;100.00;95581.44;5024629;28;20054;-77
2022/02/15 03:38:10;;;;;;;5.57;3.13;;;;;;;3.59;100.00;95587.84;5022412;28;20112;-77
2022/02/15 03:43:29;;;;;;;7.67;3.57;;;;;;;3.55;100.00;95581.25;5030218;28;20064;-77
2022/02/15 03:45:59;;;;;;;9.40;3.50;;;;;;;3.51;100.00;95585.06;5020807;28;20025;-78
2022/02/15 03:48:31;;;;;;;6.37;2.80;;;;;;;3.50;100.00;95581.66;5059950;28;20111;-78
2022/02/15 03:50:57;;;;;;;6.00;2.63;;;;;;;3.48;100.00;95580.13;5018755;28;20041;-78
2022/02/15 03:53:24;;;;;;;7.53;3.93;;;;;;;3.45;100.00;95581.22;5025232;28;20045;-78
2022/02/15 03:55:50;;;;;;;5.53;2.90;;;;;;;3.44;100.00;95591.75;5019760;28;20038;-78
2022/02/15 03:58:17;;;;;;;7.53;3.50;;;;;;;3.44;100.00;95594.34;5036944;28;20104;-77
2022/02/15 04:00:43;;;;;;;9.00;3.80;;;;;;;3.43;100.00;95606.53;5029942;28;20095;-77
2022/02/15 04:03:17;;;;;;;6.90;3.57;;;;;;;3.45;100.00;95598.59;5026464;28;20033;-79
2022/02/15 04:05:45;;;;;;;6.17;3.30;;;;;;;3.40;100.00;95599.00;5037627;28;20033;-77
2022/02/15 04:08:11;;;;;;;4.93;2.30;;;;;;;3.41;100.00;95599.81;5021098;28;20047;-78
2022/02/15 04:10:38;;;;;;;6.33;3.13;;;;;;;3.36;100.00;95605.41;5034867;28;20029;-78
2022/02/15 04:13:05;;;;;;;5.90;3.20;;;;;;;3.37;100.00;95607.03;5026265;28;20026;-77
2022/02/15 04:15:31;;;;;;;6.93;3.50;;;;;;;3.39;100.00;95609.53;5015012;28;20040;-77
2022/02/15 04:17:58;;;;;;;8.13;4.13;;;;;;;3.42;100.00;95612.69;5022702;28;20021;-77
2022/02/15 04:20:25;;;;;;;5.97;3.20;;;;;;;3.43;100.00;95616.09;5003774;28;20115;-76
2022/02/15 04:22:50;;;;;;;5.67;3.10;;;;;;;3.42;100.00;95617.03;5030341;28;20032;-78
2022/02/15 04:25:17;;;;;;;6.00;3.20;;;;;;;3.41;100.00;95615.41;5041056;28;20120;-77
2022/02/15 04:27:44;;;;;;;5.23;2.83;;;;;;;3.37;100.00;95619.22;5043503;28;20033;-78
2022/02/15 04:30:11;;;;;;;5.13;2.43;;;;;;;3.36;100.00;95627.97;5022889;28;20450;-78
2022/02/15 04:32:39;;;;;;;5.23;2.77;;;;;;;3.36;100.00;95618.41;5019698;28;20044;-78
2022/02/15 04:35:06;;;;;;;5.27;2.70;;;;;;;3.33;100.00;95621.25;5023956;28;20029;-77
2022/02/15 04:37:32;;;;;;;5.33;2.63;;;;;;;3.34;100.00;95625.50;5021109;28;20087;-78
2022/02/15 04:39:57;;;;;;;6.50;2.80;;;;;;;3.33;100.00;95617.84;5013981;28;20025;-77
2022/02/15 04:42:24;;;;;;;20.20;8.17;;;;;;;3.34;100.00;95624.69;5025300;28;20030;-78
2022/02/15 04:44:54;;;;;;;26.40;11.57;;;;;;;3.36;100.00;95622.78;5024429;28;20063;-77
2022/02/15 04:47:29;;;;;;;18.13;7.60;;;;;;;3.41;100.00;95628.41;5014104;28;20049;-79
2022/02/15 04:49:55;;;;;;;16.60;10.63;;;;;;;3.42;100.00;95630.03;5017894;28;20037;-77
2022/02/15 04:52:23;;;;;;;9.47;4.63;;;;;;;3.39;100.00;95636.34;5020898;28;20036;-77
2022/02/15 04:54:48;;;;;;;7.63;3.80;;;;;;;3.39;100.00;95628.53;5012907;28;20386;-77
2022/02/15 04:57:14;;;;;;;6.83;3.80;;;;;;;3.39;100.00;95628.53;5031727;28;20042;-77
2022/02/15 04:59:42;;;;;;;7.37;4.27;;;;;;;3.44;100.00;95628.16;5027248;28;20034;-77
2022/02/15 05:02:17;;;;;;;11.90;5.37;;;;;;;3.48;100.00;95632.94;5028849;28;20021;-77
2022/02/15 05:04:48;;;;;;;10.57;5.93;;;;;;;3.51;100.00;95643.06;5017904;28;20040;-77
2022/02/15 05:07:19;;;;;;;10.93;5.07;;;;;;;3.54;100.00;95635.03;5041329;28;20036;-78
2022/02/15 05:09:46;;;;;;;9.63;5.40;;;;;;;3.59;100.00;95639.00;5036071;28;20033;-79
2022/02/15 05:12:16;;;;;;;9.50;4.90;;;;;;;3.55;100.00;95638.44;5027179;28;20042;-78
2022/02/15 05:14:43;;;;;;;8.50;5.63;;;;;;;3.57;100.00;95636.53;5008139;28;20038;-78
2022/02/15 05:17:12;;;;;;;9.20;5.10;;;;;;;3.51;100.00;95643.06;5063872;28;20026;-78
2022/02/15 05:19:41;;;;;;;7.63;4.17;;;;;;;3.55;100.00;95648.84;5029957;28;20044;-78
2022/02/15 05:22:08;;;;;;;8.17;3.80;;;;;;;3.55;100.00;95641.03;5037251;28;20140;-78
2022/02/15 05:24:45;;;;;;;5.67;3.10;;;;;;;3.54;100.00;95650.63;5044437;28;20453;-76
2022/02/15 05:27:12;;;;;;;6.47;3.53;;;;;;;3.54;100.00;95658.41;5025141;28;20071;-76
2022/02/15 05:29:43;;;;;;;14.37;5.30;;;;;;;3.61;100.00;95652.69;5038135;28;20115;-76
2022/02/15 05:32:32;;;;;;;13.47;5.67;;;;;;;3.63;100.00;95671.59;5028610;28;20040;-76
2022/02/15 05:35:00;;;;;;;8.77;3.80;;;;;;;3.69;100.00;95676.25;5017192;28;20037;-76
2022/02/15 05:37:27;;;;;;;6.77;3.13;;;;;;;3.62;100.00;95678.59;5012454;28;20399;-76
2022/02/15 05:39:53;;;;;;;4.87;3.10;;;;;;;3.68;100.00;95677.22;5041218;28;20033;-76
2022/02/15 05:42:40;;;;;;;6.40;3.20;;;;;;;3.64;100.00;95673.25;5032329;28;20080;-76
2022/02/15 05:45:07;;;;;;;6.27;3.10;;;;;;;3.65;100.00;95667.91;5016380;28;20030;-75
2022/02/15 05:47:38;;;;;;;6.33;2.83;;;;;;;3.69;100.00;95664.09;5003728;28;20380;-75
2022/02/15 05:52:50;;;;;;;8.33;3.53;;;;;;;3.61;100.00;95676.09;5045680;28;20056;-75
2022/02/15 05:55:17;;;;;;;6.37;3.60;;;;;;;3.58;100.00;95686.75;5029316;28;20032;-77
2022/02/15 05:57:44;;;;;;;8.30;3.50;;;;;;;3.61;100.00;95689.09;5017946;28;20029;-76
2022/02/15 06:00:17;;;;;;;5.67;2.53;;;;;;;3.55;100.00;95687.84;5019351;28;20032;-76
2022/02/15 06:02:48;;;;;;;18.33;8.27;;;;;;;3.62;100.00;95689.00;5026523;28;20438;-76
2022/02/15 06:05:37;;;;;;;12.50;6.17;;;;;;;3.69;100.00;95684.91;5026650;28;20397;-76
2022/02/15 06:08:04;;;;;;;9.03;4.10;;;;;;;3.66;100.00;95692.16;5032885;28;20472;-77
2022/02/15 06:10:33;;;;;;;6.57;3.30;;;;;;;3.64;100.00;95694.88;5020160;28;20037;-76
2022/02/15 06:13:20;;;;;;;7.03;3.20;;;;;;;3.60;100.00;95683.09;5030598;28;20037;-76
2022/02/15 06:15:46;;;;;;;6.80;2.67;;;;;;;3.58;100.00;95691.97;5000472;28;20031;-77
2022/02/15 06:18:18;;;;;;;6.77;2.70;;;;;;;3.54;100.00;95692.22;5034394;28;20098;-76
2022/02/15 06:20:48;;;;;;;7.10;3.07;;;;;;;3.55;100.00;95695.63;5046408;28;20029;-77
2022/02/15 06:23:19;;;;;;;5.83;2.50;;;;;;;3.55;100.00;95706.03;5025613;28;20045;-77
2022/02/15 06:25:46;;;;;;;5.17;2.23;;;;;;;3.49;100.00;95715.19;5027104;28;20056;-77
2022/02/15 06:28:13;;;;;;;5.40;3.03;;;;;;;3.55;100.00;95700.84;5049746;28;20057;-77
2022/02/15 06:30:50;;;;;;;6.07;2.60;;;;;;;3.54;100.00;95705.22;5041280;28;20032;-76
2022/02/15 06:33:24;;;;;;;4.65;2.72;;;;;;;3.49;100.00;95720.38;5007618;28;20463;-78
2022/02/15 06:35:50;;;;;;;6.03;3.43;;;;;;;3.44;100.00;95717.34;5032541;28;20064;-78
2022/02/15 06:38:16;;;;;;;6.60;3.50;;;;;;;3.44;100.00;95711.31;5045182;28;20132;-76
2022/02/15 06:40:52;;;;;;;9.13;4.43;;;;;;;3.45;100.00;95718.97;5030694;28;20032;-76
2022/02/15 06:43:27;;;;;;;10.33;4.03;;;;;;;3.40;100.00;95710.75;5007588;28;20505;-77
2022/02/15 06:45:53;;;;;;;9.87;4.93;;;;;;;3.38;100.00;95717.03;5010114;28;20037;-76
2022/02/15 06:48:24;;;;;;;14.17;6.40;;;;;;;3.36;100.00;95714.56;5069367;28;20034;-77
2022/02/15 06:50:52;;;;;;;13.33;6.20;;;;;;;3.33;100.00;95722.63;5023009;28;20029;-77
2022/02/15 06:53:39;;;;;;;13.80;6.47;;;;;;;3.33;100.00;95722.63;5039383;28;20045;-78
2022/02/15 06:56:11;;;;;;;13.70;5.93;;;;;;;3.32;100.00;95718.38;5041799;28;20091;-77
2022/02/15 06:58:43;;;;;;;12.63;5.97;;;;;;;3.33;100.00;95722.63;5019552;28;20025;-78
2022/02/15 07:01:15;;;;;;;12.00;5.53;;;;;;;3.31;100.00;95734.91;5041743;28;20039;-77
2022/02/15 07:03:41;;;;;;;10.00;4.93;;;;;;;3.38;100.00;95740.41;5044725;28;20026;-76
2022/02/15 07:06:09;;;;;;;9.27;4.50;;;;;;;3.35;100.00;95741.50;5075738;28;20117;-77
2022/02/15 07:08:35;;;;;;;8.13;4.87;;;;;;;3.40;100.00;95747.16;5015639;28;20099;-78
2022/02/15 07:11:00;;;;;;;7.57;4.43;;;;;;;3.38;100.00;95751.63;5029854;28;20055;-78
2022/02/15 07:13:31;;;;;;;10.33;4.17;;;;;;;3.44;100.00;95755.50;5020534;28;20105;-80
2022/02/15 07:16:01;;;;;;;9.23;4.57;;;;;;;3.46;100.00;95758.81;5020306;28;20072;-79
2022/02/15 07:18:28;;;;;;;7.13;4.80;;;;;;;3.45;100.00;95764.94;5050947;28;20371;-78
2022/02/15 07:21:12;;;;;;;7.67;4.77;;;;;;;3.49;100.00;95769.78;5051891;28;20030;-78
2022/02/15 07:23:57;;;;;;;7.33;4.20;;;;;;;3.48;100.00;95772.50;5044619;28;20036;-78
2022/02/15 07:26:32;;;;;;;8.63;4.30;;;;;;;3.52;100.00;95769.53;5045115;28;20120;-77
2022/02/15 07:29:09;;;;;;;12.17;5.80;;;;;;;3.56;100.00;95780.50;5028377;28;20045;-78
2022/02/15 07:31:50;;;;;;;12.10;5.93;;;;;;;3.69;100.00;95781.13;5079344;28;20033;-78
2022/02/15 07:34:17;;;;;;;10.53;5.90;;;;;;;3.69;100.00;95782.88;5008373;28;20678;-79
2022/02/15 07:36:44;;;;;;;8.87;4.87;;;;;;;3.74;100.00;95783.34;5003276;28;20041;-77
2022/02/15 07:39:10;;;;;;;7.73;4.60;;;;;;;3.68;100.00;95789.03;5019928;28;20044;-79
2022/02/15 07:41:36;;;;;;;8.17;4.37;;;;;;;3.73;100.00;95792.91;5018500;28;20056;-79
2022/02/15 07:44:02;;;;;;;7.10;4.00;;;;;;;3.73;100.00;95799.91;5028394;28;20533;-78
2022/02/15 07:46:32;;;;;;;7.83;3.87;;;;;;;3.72;100.00;95793.88;5014477;28;20109;-78
2022/02/15 07:48:58;;;;;;;9.93;4.17;;;;;;;3.85;100.00;95796.25;5017447;28;20064;-77
2022/02/15 07:51:23;;;;;;;8.90;3.80;;;;;;;3.84;100.00;95802.41;5017184;28;20041;-78
2022/02/15 07:53:49;;;;;;;6.70;3.60;;;;;;;3.90;100.00;95808.91;5011586;28;20037;-77
2022/02/15 07:56:15;;;;;;;8.67;4.00;;;;;;;3.89;100.00;95810.69;5018067;28;20060;-78
2022/02/15 07:58:41;;;;;;;9.20;3.97;;;;;;;3.89;100.00;95818.47;5023226;28;20037;-78
2022/02/15 08:01:07;;;;;;;7.53;4.07;;;;;;;3.87;100.00;95815.16;5008420;28;20033;-78
2022/02/15 08:03:32;;;;;;;7.57;3.53;;;;;;;3.86;100.00;95818.72;5010371;28;20093;-78
2022/02/15 08:05:58;;;;;;;13.87;4.13;;;;;;;3.88;100.00;95822.00;5041377;28;20037;-78
2022/02/15 08:08:24;;;;;;;9.07;4.20;;;;;;;3.87;100.00;95825.56;5027196;28;20037;-78
2022/02/15 08:10:50;;;;;;;7.60;3.60;;;;;;;3.89;100.00;95828.88;5012137;28;20521;-77
2022/02/15 08:13:18;;;;;;;16.87;9.17;;;;;;;3.92;100.00;95832.97;5028163;28;20029;-79
2022/02/15 08:15:46;;;;;;;19.80;9.17;;;;;;;3.95;100.00;95832.72;5045568;28;20028;-78
2022/02/15 08:18:12;;;;;;;18.47;7.83;;;;;;;4.01;100.00;95843.44;5028456;28;20043;-78
2022/02/15 08:20:38;;;;;;;11.63;4.33;;;;;;;4.03;100.00;95837.31;5017206;28;20026;-79
2022/02/15 08:23:05;;;;;;;11.93;4.40;;;;;;;4.04;100.00;95836.34;5031002;28;20033;-78
2022/02/15 08:25:31;;;;;;;6.80;3.20;;;;;;;3.99;100.00;95839.31;5033010;28;20079;-78
2022/02/15 08:27:58;;;;;;;8.40;4.13;;;;;;;4.01;100.00;95843.44;5017133;28;20032;-78
2022/02/15 08:30:24;;;;;;;7.73;3.13;;;;;;;4.10;100.00;95844.47;5033739;28;20073;-78
2022/02/15 08:32:49;;;;;;;6.13;3.30;;;;;;;4.14;100.00;95850.22;5046619;28;20056;-78
2022/02/15 08:35:17;;;;;;;6.60;3.20;;;;;;;4.22;100.00;95850.41;5030013;28;20025;-78
2022/02/15 08:37:43;;;;;;;5.33;2.73;;;;;;;4.26;100.00;95854.41;5029303;28;20045;-78
2022/02/15 08:40:12;;;;;;;6.20;3.00;;;;;;;4.19;100.00;95856.72;5020784;28;20029;-78
2022/02/15 08:42:39;;;;;;;5.97;2.70;;;;;;;4.28;100.00;95854.28;5028844;28;20041;-78
2022/02/15 08:45:07;;;;;;;8.37;4.13;;;;;;;4.25;100.00;95853.56;5027534;28;20029;-78
2022/02/15 08:47:33;;;;;;;6.30;3.23;;;;;;;4.24;100.00;95861.53;5049725;28;20045;-78
2022/02/15 08:50:00;;;;;;;7.53;3.20;;;;;;;4.22;100.00;95861.63;5036114;28;20029;-78
2022/02/15 08:52:29;;;;;;;7.00;3.03;;;;;;;4.23;100.00;95852.06;5039254;28;20028;-78
2022/02/15 08:54:54;;;;;;;7.67;3.20;;;;;;;4.18;100.00;95862.03;5040700;28;20486;-78
2022/02/15 08:57:21;;;;;;;5.43;3.00;;;;;;;4.15;100.00;95862.28;5018590;28;20033;-79
2022/02/15 08:59:48;;;;;;;5.63;2.80;;;;;;;4.15;100.00;95863.09;5044017;28;20028;-78
2022/02/15 09:02:13;;;;;;;8.23;3.23;;;;;;;4.13;100.00;95867.63;5021609;28;20504;-78
2022/02/15 09:04:39;;;;;;;6.50;2.90;;;;;;;4.17;100.00;95863.00;5052128;28;20033;-79
2022/02/15 09:07:08;;;;;;;6.60;3.03;;;;;;;4.20;100.00;95875.75;5036290;28;20039;-79
2022/02/15 09:09:35;;;;;;;7.00;2.77;;;;;;;4.21;100.00;95872.19;5025539;28;20034;-78
2022/02/15 09:12:01;;;;;;;10.27;3.60;;;;;;;4.34;100.00;95878.00;5040391;28;20047;-78
2022/02/15 09:14:29;;;;;;;7.77;3.20;;;;;;;4.39;100.00;95886.28;5012563;28;20109;-78
2022/02/15 09:16:56;;;;;;;11.63;4.13;;;;;;;4.49;100.00;95884.53;5047425;28;20037;-78
2022/02/15 09:19:21;;;;;;;7.23;3.10;;;;;;;4.46;100.00;95882.19;5027974;28;20044;-78
2022/02/15 09:21:50;;;;;;;8.80;2.87;;;;;;;4.60;100.00;95881.00;5019062;28;20026;-78
2022/02/15 09:24:16;;;;;;;5.17;3.07;;;;;;;4.49;100.00;95874.13;5043827;28;20695;-79
2022/02/15 09:26:42;;;;;;;5.77;3.00;;;;;;;4.44;100.00;95875.44;5039848;28;20029;-78
2022/02/15 09:29:09;;;;;;;6.20;3.33;;;;;;;4.44;100.00;95878.88;5023818;28;20112;-79
2022/02/15 09:31:37;;;;;;;5.73;3.50;;;;;;;4.46;100.00;95886.53;5024321;28;20044;-79
2022/02/15 09:34:06;;;;;;;9.37;3.70;;;;;;;4.37;100.00;95885.56;5041591;28;20709;-80
2022/02/15 09:36:31;;;;;;;11.17;3.30;;;;;;;4.43;100.00;95892.84;5022805;28;20034;-80
2022/02/15 09:38:57;;;;;;;5.93;3.10;;;;;;;4.51;100.00;95891.38;5027393;28;20034;-78
2022/02/15 09:41:23;;;;;;;9.47;3.70;;;;;;;4.47;100.00;95883.81;5043132;28;20033;-78
2022/02/15 09:43:49;;;;;;;6.03;3.20;;;;;;;4.49;100.00;95889.75;5033817;28;20028;-79
2022/02/15 09:46:16;;;;;;;6.70;2.90;;;;;;;4.51;100.00;95881.78;5026643;28;20048;-78
2022/02/15 09:48:43;;;;;;;6.60;3.07;;;;;;;4.52;100.00;95891.22;5027786;28;20121;-78
2022/02/15 09:51:11;;;;;;;12.80;4.10;;;;;;;4.43;100.00;95890.25;5044451;28;20064;-78
2022/02/15 09:53:37;;;;;;;7.00;2.93;;;;;;;4.49;100.00;95894.09;5017829;28;20037;-77
2022/02/15 09:56:04;;;;;;;6.10;2.90;;;;;;;4.54;100.00;95896.34;5024710;28;20013;-78
2022/02/15 09:58:30;;;;;;;5.97;2.70;;;;;;;4.52;100.00;95904.25;5054189;28;20037;-78
2022/02/15 10:00:56;;;;;;;5.33;2.67;;;;;;;4.61;100.00;95905.25;5034987;28;20063;-78
2022/02/15 10:03:22;;;;;;;7.37;3.20;;;;;;;4.60;100.00;95916.66;5048810;28;20037;-78
2022/02/15 10:05:50;;;;;;;6.80;2.93;;;;;;;4.60;100.00;95916.66;5050205;28;20107;-78
2022/02/15 10:08:28;;;;;;;4.70;2.57;;;;;;;4.54;100.00;95917.16;5013680;28;20041;-78
2022/02/15 10:10:54;;;;;;;6.20;2.53;;;;;;;4.56;100.00;95918.69;5030932;28;20475;-78
2022/02/15 10:13:20;;;;;;;7.67;3.33;;;;;;;4.59;100.00;95917.59;5043434;28;20032;-80
2022/02/15 10:15:46;;;;;;;10.33;3.73;;;;;;;4.60;100.00;95916.66;5039337;28;20025;-78
2022/02/15 10:18:19;;;;;;;6.47;2.60;;;;;;;4.51;100.00;95917.41;5056870;28;20029;-81
2022/02/15 10:20:46;;;;;;;6.47;2.63;;;;;;;4.51;100.00;95917.41;5053633;28;20406;-81
2022/02/15 10:23:20;;;;;;;7.60;2.67;;;;;;;4.47;100.00;95916.84;5035341;28;20662;-83
2022/02/15 10:25:48;;;;;;;5.70;2.90;;;;;;;4.49;100.00;95920.13;5054319;28;20489;-82
2022/02/15 10:28:16;;;;;;;7.87;3.27;;;;;;;4.44;100.00;95927.53;5035903;28;20047;-83
2022/02/15 10:30:50;;;;;;;6.97;2.60;;;;;;;4.39;100.00;95924.47;5052021;28;20044;-81
2022/02/15 10:33:17;;;;;;;6.20;3.17;;;;;;;4.49;100.00;95926.19;5034149;28;20043;-80
2022/02/15 10:36:07;;;;;;;7.27;3.50;;;;;;;4.43;100.00;95931.09;5033552;28;20029;-80
2022/02/15 10:38:40;;;;;;;6.07;3.03;;;;;;;4.44;100.00;95936.16;5034913;28;20037;-81
2022/02/15 10:41:08;;;;;;;8.70;3.08;;;;;;;4.43;100.00;95937.13;5052919;28;20471;-81
2022/02/15 10:43:54;;;;;;;8.00;3.57;;;;;;;4.41;100.00;95939.00;5053554;28;20074;-80
2022/02/15 10:46:25;;;;;;;6.90;3.20;;;;;;;4.39;100.00;95942.69;5035945;28;20040;-81
2022/02/15 10:48:52;;;;;;;6.50;3.37;;;;;;;4.45;100.00;95943.00;5035854;28;20078;-81
2022/02/15 10:51:19;;;;;;;7.17;3.97;;;;;;;4.40;100.00;95945.19;5053017;28;20040;-81
2022/02/15 10:53:46;;;;;;;6.60;3.90;;;;;;;4.37;100.00;95950.66;5036909;28;20039;-82
2022/02/15 10:56:12;;;;;;;8.97;3.33;;;;;;;4.43;100.00;95944.94;5055010;28;20041;-80
2022/02/15 10:58:39;;;;;;;10.73;6.20;;;;;;;4.42;100.00;95943.25;5050792;28;20033;-80
2022/02/15 11:01:07;;;;;;;7.17;3.97;;;;;;;4.40;100.00;95946.97;5062994;28;20036;-81
2022/02/15 11:03:35;;;;;;;7.03;3.20;;;;;;;4.53;100.00;95955.41;5054229;28;20044;-80
2022/02/15 11:06:03;;;;;;;6.07;2.80;;;;;;;4.48;100.00;95952.34;5053321;28;20107;-80
2022/02/15 11:08:30;;;;;;;5.90;3.27;;;;;;;4.62;100.00;95948.56;5054496;28;20111;-82
2022/02/15 11:11:25;;;;;;;6.03;3.13;;;;;;;4.58;100.00;95949.78;5053769;28;20098;-81
2022/02/15 11:13:57;;;;;;;5.10;3.00;;;;;;;4.68;100.00;95950.66;5040657;28;20276;-82
2022/02/15 11:16:24;;;;;;;6.20;3.33;;;;;;;4.79;100.00;95961.00;5056507;28;20040;-82
2022/02/15 11:18:50;;;;;;;8.37;3.43;;;;;;;4.95;100.00;95953.53;5055503;28;20064;-81
2022/02/15 11:21:27;;;;;;;5.23;2.70;;;;;;;5.11;100.00;95952.22;5057367;28;20514;-82
2022/02/15 11:24:01;;;;;;;5.40;2.87;;;;;;;5.33;100.00;95952.00;5039824;28;20033;-80
2022/02/15 11:26:42;;;;;;;8.23;3.90;;;;;;;5.30;100.00;95954.88;5056544;28;20087;-81
2022/02/15 11:29:23;;;;;;;5.97;3.17;;;;;;;5.23;100.00;95960.75;5054970;28;20091;-81
2022/02/15 11:31:49;;;;;;;5.03;2.77;;;;;;;5.21;100.00;95960.88;5055038;28;20033;-81
2022/02/15 11:34:15;;;;;;;7.87;3.30;;;;;;;5.24;100.00;95960.63;5037448;28;20029;-80
2022/02/15 11:36:45;;;;;;;7.07;3.10;;;;;;;5.23;100.00;95956.38;5054116;28;20040;-83
2022/02/15 11:39:19;;;;;;;6.63;3.53;;;;;;;5.40;100.00;95968.78;5048309;28;20041;-76
2022/02/15 11:41:59;;;;;;;8.40;4.40;;;;;;;5.41;100.00;95962.59;5020414;28;20448;-81
2022/02/15 11:44:30;;;;;;;8.97;3.87;;;;;;;5.38;100.00;95960.25;5049033;28;20041;-82